James L. Oberstar — WDC6154 — position and weather

sailwx.info

Track history (hours):
 
Tides and Currents Weather Stations Pressure Air Temp Water Temp Dewpoint Dewpoint Depression Visibility Wind Speed Wind Dir Waves Ship Positions

James L. Oberstar

Owner: Destin Trading Corporation, harahan, LA. More information available from US FCC via Universal Licensing System and Coast Guard Vessel Documentation Center.

Last reported at 2018-Apr-18 07:17 UTC. Time now 2018-Apr-21 20:58 UTC.
Position N 27°50' W 097°30'.

Length 26 m; draft 3 m.

Type: Towing. MMSI: 367052120.

Date/timePositionNaut miles runAvg speedWind from/ knotsBaromVisibWave heightAir tempDewpointWater temp
2018-Apr-18 07:17N 27°50' W 097°30'  
2018-Apr-13 09:00N 29°07' W 095°11'0 0.0
2018-Apr-13 08:17N 29°07' W 095°12'0 0.0
2018-Apr-13 07:48N 29°07' W 095°11'0 0.6
2018-Apr-13 07:26N 29°07' W 095°11'2 4.7
2018-Apr-13 06:59N 29°09' W 095°10'3 5.5
2018-Apr-13 06:30N 29°10' W 095°07'2 4.9
2018-Apr-13 06:00N 29°11' W 095°05'2 5.0
2018-Apr-13 05:30N 29°13' W 095°02'2 3.7
2018-Apr-13 04:59N 29°14' W 095°01'0 0.0
2018-Apr-13 04:30N 29°14' W 095°01'0 0.0
2018-Apr-13 04:00N 29°14' W 095°01'0 0.9
2018-Apr-13 03:30N 29°15' W 095°01'3 5.3
2018-Apr-13 03:00N 29°17' W 094°59'0 0.1
2018-Apr-13 02:26N 29°17' W 094°59'0 0.0
2018-Apr-13 02:00N 29°17' W 094°59'0 0.0
2018-Apr-13 01:23N 29°17' W 094°59'0 0.0
2018-Apr-13 00:59N 29°17' W 094°59'0 0.0
2018-Apr-13 00:30N 29°17' W 094°59'0 0.0
2018-Apr-13 00:00N 29°17' W 094°59'0 0.0
2018-Apr-12 23:30N 29°17' W 094°59'0 0.0
2018-Apr-12 22:56N 29°17' W 094°59'1 2.9
2018-Apr-12 22:30N 29°17' W 094°57'4 5.9
2018-Apr-12 21:55N 29°17' W 094°53'4 6.2
2018-Apr-12 21:14N 29°20' W 094°50'1 1.4
2018-Apr-12 20:21N 29°21' W 094°49'2 4.0
2018-Apr-12 19:50N 29°23' W 094°49'2 6.2
2018-Apr-12 19:27N 29°25' W 094°50'3 6.7
2018-Apr-12 19:00N 29°28' W 094°51'3 6.8
2018-Apr-12 18:29N 29°31' W 094°53'3 6.9
2018-Apr-12 18:00N 29°34' W 094°55'3 6.9
2018-Apr-12 17:30N 29°37' W 094°57'4 7.2
2018-Apr-12 17:00N 29°40' W 094°59'3 6.9
2018-Apr-12 16:30N 29°43' W 095°01'2 3.5
2018-Apr-12 15:57N 29°44' W 095°03'0 0.0
2018-Apr-12 15:30N 29°44' W 095°03'0 0.0
2018-Apr-12 14:59N 29°44' W 095°03'0 0.0
2018-Apr-12 14:29N 29°44' W 095°03'0 0.0
2018-Apr-12 13:58N 29°44' W 095°03'0 0.0
2018-Apr-12 13:25N 29°44' W 095°03'0 0.0
2018-Apr-12 13:00N 29°44' W 095°03'0 0.0
2018-Apr-12 12:30N 29°44' W 095°03'0 0.0
2018-Apr-12 11:59N 29°44' W 095°03'0 0.0
2018-Apr-12 11:30N 29°44' W 095°03'0 0.0
2018-Apr-12 10:58N 29°44' W 095°03'0 0.0
2018-Apr-12 10:19N 29°44' W 095°03'0 0.0
2018-Apr-12 10:00N 29°44' W 095°03'0 0.0
2018-Apr-12 09:30N 29°44' W 095°03'0 0.0
2018-Apr-12 08:57N 29°44' W 095°03'0 0.0
2018-Apr-12 08:30N 29°44' W 095°03'0 0.0
2018-Apr-12 07:59N 29°44' W 095°03'0 0.0
2018-Apr-12 07:30N 29°44' W 095°03'0 0.0
2018-Apr-12 07:00N 29°44' W 095°03'0 0.0
2018-Apr-12 06:30N 29°44' W 095°03'0 0.0
2018-Apr-12 06:00N 29°44' W 095°03'0 0.0
2018-Apr-12 05:23N 29°44' W 095°03'0 0.0
2018-Apr-12 04:58N 29°44' W 095°03'0 0.0
2018-Apr-12 04:29N 29°44' W 095°03'0 0.0
2018-Apr-12 03:53N 29°44' W 095°03'0 0.0
2018-Apr-12 03:29N 29°44' W 095°03'0 0.0
2018-Apr-12 03:00N 29°44' W 095°03'0 0.0
2018-Apr-12 02:30N 29°44' W 095°03'0 0.0
2018-Apr-12 01:53N 29°44' W 095°03'0 0.0
2018-Apr-12 01:14N 29°44' W 095°03'0 0.0
2018-Apr-12 00:39N 29°44' W 095°03'0 0.0
2018-Apr-12 00:30N 29°44' W 095°03'0 0.0
2018-Apr-11 23:59N 29°44' W 095°03'0 0.0
2018-Apr-11 16:31N 29°44' W 095°03'0 0.5
2018-Apr-11 16:30N 29°44' W 095°03'0 0.2
2018-Apr-11 15:58N 29°44' W 095°03'1 2.0
2018-Apr-11 15:28N 29°45' W 095°04'2 3.3
2018-Apr-11 15:00N 29°46' W 095°05'1 2.7
2018-Apr-11 14:30N 29°47' W 095°04'0 0.7
2018-Apr-11 13:58N 29°47' W 095°05'0 0.0
2018-Apr-11 13:29N 29°47' W 095°05'0 0.0
2018-Apr-11 13:00N 29°47' W 095°05'0 0.0
2018-Apr-11 12:30N 29°47' W 095°05'0 0.0
2018-Apr-11 12:00N 29°47' W 095°05'0 0.0
2018-Apr-11 11:29N 29°47' W 095°05'0 0.0
2018-Apr-11 10:46N 29°47' W 095°05'0 0.0
2018-Apr-11 10:15N 29°47' W 095°05'0 0.0
2018-Apr-11 10:00N 29°47' W 095°05'0 0.0
2018-Apr-11 09:20N 29°47' W 095°05'0 0.0
2018-Apr-11 08:35N 29°47' W 095°05'0 0.0
2018-Apr-11 08:28N 29°47' W 095°05'0 0.0
2018-Apr-11 07:52N 29°47' W 095°05'0 0.0
2018-Apr-11 07:30N 29°47' W 095°05'0 0.0
2018-Apr-11 07:00N 29°47' W 095°05'0 0.0
2018-Apr-11 06:28N 29°47' W 095°05'0 0.0
2018-Apr-11 05:58N 29°47' W 095°05'0 0.0
2018-Apr-11 05:18N 29°47' W 095°05'0 0.0
2018-Apr-11 04:59N 29°47' W 095°05'0 0.0
2018-Apr-10 22:05N 29°47' W 095°05'0 0.0
2018-Apr-10 21:41N 29°47' W 095°05'0 0.0
2018-Apr-10 21:29N 29°47' W 095°05'0 0.1
2018-Apr-10 21:01N 29°47' W 095°05'0 0.1
2018-Apr-10 20:30N 29°47' W 095°05'0 0.1
2018-Apr-10 20:01N 29°47' W 095°05'0 0.0
2018-Apr-10 19:30N 29°47' W 095°05'0 0.0
2018-Apr-10 19:01N 29°47' W 095°05'0 0.0
2018-Apr-10 18:29N 29°47' W 095°05'0 0.0
2018-Apr-10 18:00N 29°47' W 095°05'0 0.0
2018-Apr-10 17:31N 29°47' W 095°05'0 0.0
2018-Apr-10 16:59N 29°47' W 095°05'0 0.0
2018-Apr-10 16:31N 29°47' W 095°05'0 0.1
2018-Apr-10 15:53N 29°47' W 095°05'1 2.9
2018-Apr-10 15:31N 29°46' W 095°05'2 2.9
2018-Apr-10 14:59N 29°45' W 095°06'1 1.0
2018-Apr-10 13:42N 29°46' W 095°07'0 0.1
2018-Apr-10 13:17N 29°46' W 095°07'0 0.6
2018-Apr-10 13:00N 29°46' W 095°07'2 4.1
2018-Apr-10 12:29N 29°46' W 095°05'1 1.8
2018-Apr-10 11:56N 29°47' W 095°05'0 0.1
2018-Apr-10 11:28N 29°47' W 095°05'0 0.0
2018-Apr-10 10:59N 29°47' W 095°05'0 0.0
2018-Apr-10 10:29N 29°47' W 095°05'0 0.0
2018-Apr-10 06:32N 29°47' W 095°05'0 0.0
2018-Apr-10 00:07N 29°47' W 095°05'0 0.0
2018-Apr-10 00:00N 29°47' W 095°05'0 0.0
2018-Apr-09 23:30N 29°47' W 095°05'0 0.0
2018-Apr-09 23:00N 29°47' W 095°05'0 0.0
2018-Apr-09 22:30N 29°47' W 095°05'0 0.0
2018-Apr-09 22:00N 29°47' W 095°05'0 0.0
2018-Apr-09 21:30N 29°47' W 095°05'0 0.0
2018-Apr-09 21:00N 29°47' W 095°05'0 0.0
2018-Apr-09 20:30N 29°47' W 095°05'0 0.0
2018-Apr-09 20:00N 29°47' W 095°05'0 0.0
2018-Apr-09 19:30N 29°47' W 095°05'0 0.0
2018-Apr-09 19:00N 29°47' W 095°05'0 0.0
2018-Apr-09 18:29N 29°47' W 095°05'0 0.0
2018-Apr-09 18:00N 29°47' W 095°05'0 0.0
2018-Apr-09 17:31N 29°47' W 095°05'0 0.0
2018-Apr-09 17:00N 29°47' W 095°05'0 0.0
2018-Apr-09 15:08N 29°47' W 095°05'0 0.0
2018-Apr-09 13:49N 29°47' W 095°05'0 0.0
2018-Apr-09 00:20N 29°47' W 095°05'0 0.0
2018-Apr-08 23:15N 29°47' W 095°05'0 0.0
2018-Apr-08 22:48N 29°47' W 095°05'0 0.6
2018-Apr-08 22:31N 29°47' W 095°05'0 0.0
2018-Apr-08 20:52N 29°47' W 095°05'2 4.3
2018-Apr-08 20:30N 29°46' W 095°05'1 0.4
2018-Apr-08 16:25N 29°45' W 095°06'2 5.0
2018-Apr-08 16:00N 29°46' W 095°05'1 1.6
2018-Apr-08 15:30N 29°47' W 095°05'0 0.0
2018-Apr-08 15:01N 29°47' W 095°05'0 0.0
2018-Apr-08 14:31N 29°47' W 095°05'0 0.0
2018-Apr-08 14:00N 29°47' W 095°05'0 0.0
2018-Apr-08 13:30N 29°47' W 095°05'0 0.0
2018-Apr-08 12:57N 29°47' W 095°05'0 0.0
2018-Apr-08 12:06N 29°47' W 095°05'0 0.0
2018-Apr-08 10:25N 29°47' W 095°05'0 0.0
2018-Apr-08 09:55N 29°47' W 095°05'  
Track history (hours):
 
Tides and Currents Weather Stations Pressure Air Temp Water Temp Dewpoint Dewpoint Depression Visibility Wind Speed Wind Dir Waves Ship Positions

James L. Oberstar

Owner: Destin Trading Corporation, harahan, LA. More information available from US FCC via Universal Licensing System and Coast Guard Vessel Documentation Center.

Last reported at 2018-Apr-18 07:17 UTC. Time now 2018-Apr-21 20:58 UTC.
Position N 27°50' W 097°30'.

Length 26 m; draft 3 m.

Type: Towing. MMSI: 367052120.

Date/timePositionNaut miles runAvg speedWind from/ knotsBaromVisibWave heightAir tempDewpointWater temp
2018-Apr-18 07:17N 27°50' W 097°30'  
2018-Apr-13 09:00N 29°07' W 095°11'0 0.0
2018-Apr-13 08:17N 29°07' W 095°12'0 0.0
2018-Apr-13 07:48N 29°07' W 095°11'0 0.6
2018-Apr-13 07:26N 29°07' W 095°11'2 4.7
2018-Apr-13 06:59N 29°09' W 095°10'3 5.5
2018-Apr-13 06:30N 29°10' W 095°07'2 4.9
2018-Apr-13 06:00N 29°11' W 095°05'2 5.0
2018-Apr-13 05:30N 29°13' W 095°02'2 3.7
2018-Apr-13 04:59N 29°14' W 095°01'0 0.0
2018-Apr-13 04:30N 29°14' W 095°01'0 0.0
2018-Apr-13 04:00N 29°14' W 095°01'0 0.9
2018-Apr-13 03:30N 29°15' W 095°01'3 5.3
2018-Apr-13 03:00N 29°17' W 094°59'0 0.1
2018-Apr-13 02:26N 29°17' W 094°59'0 0.0
2018-Apr-13 02:00N 29°17' W 094°59'0 0.0
2018-Apr-13 01:23N 29°17' W 094°59'0 0.0
2018-Apr-13 00:59N 29°17' W 094°59'0 0.0
2018-Apr-13 00:30N 29°17' W 094°59'0 0.0
2018-Apr-13 00:00N 29°17' W 094°59'0 0.0
2018-Apr-12 23:30N 29°17' W 094°59'0 0.0
2018-Apr-12 22:56N 29°17' W 094°59'1 2.9
2018-Apr-12 22:30N 29°17' W 094°57'4 5.9
2018-Apr-12 21:55N 29°17' W 094°53'4 6.2
2018-Apr-12 21:14N 29°20' W 094°50'1 1.4
2018-Apr-12 20:21N 29°21' W 094°49'2 4.0
2018-Apr-12 19:50N 29°23' W 094°49'2 6.2
2018-Apr-12 19:27N 29°25' W 094°50'3 6.7
2018-Apr-12 19:00N 29°28' W 094°51'3 6.8
2018-Apr-12 18:29N 29°31' W 094°53'3 6.9
2018-Apr-12 18:00N 29°34' W 094°55'3 6.9
2018-Apr-12 17:30N 29°37' W 094°57'4 7.2
2018-Apr-12 17:00N 29°40' W 094°59'3 6.9
2018-Apr-12 16:30N 29°43' W 095°01'2 3.5
2018-Apr-12 15:57N 29°44' W 095°03'0 0.0
2018-Apr-12 15:30N 29°44' W 095°03'0 0.0
2018-Apr-12 14:59N 29°44' W 095°03'0 0.0
2018-Apr-12 14:29N 29°44' W 095°03'0 0.0
2018-Apr-12 13:58N 29°44' W 095°03'0 0.0
2018-Apr-12 13:25N 29°44' W 095°03'0 0.0
2018-Apr-12 13:00N 29°44' W 095°03'0 0.0
2018-Apr-12 12:30N 29°44' W 095°03'0 0.0
2018-Apr-12 11:59N 29°44' W 095°03'0 0.0
2018-Apr-12 11:30N 29°44' W 095°03'0 0.0
2018-Apr-12 10:58N 29°44' W 095°03'0 0.0
2018-Apr-12 10:19N 29°44' W 095°03'0 0.0
2018-Apr-12 10:00N 29°44' W 095°03'0 0.0
2018-Apr-12 09:30N 29°44' W 095°03'0 0.0
2018-Apr-12 08:57N 29°44' W 095°03'0 0.0
2018-Apr-12 08:30N 29°44' W 095°03'0 0.0
2018-Apr-12 07:59N 29°44' W 095°03'0 0.0
2018-Apr-12 07:30N 29°44' W 095°03'0 0.0
2018-Apr-12 07:00N 29°44' W 095°03'0 0.0
2018-Apr-12 06:30N 29°44' W 095°03'0 0.0
2018-Apr-12 06:00N 29°44' W 095°03'0 0.0
2018-Apr-12 05:23N 29°44' W 095°03'0 0.0
2018-Apr-12 04:58N 29°44' W 095°03'0 0.0
2018-Apr-12 04:29N 29°44' W 095°03'0 0.0
2018-Apr-12 03:53N 29°44' W 095°03'0 0.0
2018-Apr-12 03:29N 29°44' W 095°03'0 0.0
2018-Apr-12 03:00N 29°44' W 095°03'0 0.0
2018-Apr-12 02:30N 29°44' W 095°03'0 0.0
2018-Apr-12 01:53N 29°44' W 095°03'0 0.0
2018-Apr-12 01:14N 29°44' W 095°03'0 0.0
2018-Apr-12 00:39N 29°44' W 095°03'0 0.0
2018-Apr-12 00:30N 29°44' W 095°03'0 0.0
2018-Apr-11 23:59N 29°44' W 095°03'0 0.0
2018-Apr-11 16:31N 29°44' W 095°03'0 0.5
2018-Apr-11 16:30N 29°44' W 095°03'0 0.2
2018-Apr-11 15:58N 29°44' W 095°03'1 2.0
2018-Apr-11 15:28N 29°45' W 095°04'2 3.3
2018-Apr-11 15:00N 29°46' W 095°05'1 2.7
2018-Apr-11 14:30N 29°47' W 095°04'0 0.7
2018-Apr-11 13:58N 29°47' W 095°05'0 0.0
2018-Apr-11 13:29N 29°47' W 095°05'0 0.0
2018-Apr-11 13:00N 29°47' W 095°05'0 0.0
2018-Apr-11 12:30N 29°47' W 095°05'0 0.0
2018-Apr-11 12:00N 29°47' W 095°05'0 0.0
2018-Apr-11 11:29N 29°47' W 095°05'0 0.0
2018-Apr-11 10:46N 29°47' W 095°05'0 0.0
2018-Apr-11 10:15N 29°47' W 095°05'0 0.0
2018-Apr-11 10:00N 29°47' W 095°05'0 0.0
2018-Apr-11 09:20N 29°47' W 095°05'0 0.0
2018-Apr-11 08:35N 29°47' W 095°05'0 0.0
2018-Apr-11 08:28N 29°47' W 095°05'0 0.0
2018-Apr-11 07:52N 29°47' W 095°05'0 0.0
2018-Apr-11 07:30N 29°47' W 095°05'0 0.0
2018-Apr-11 07:00N 29°47' W 095°05'0 0.0
2018-Apr-11 06:28N 29°47' W 095°05'0 0.0
2018-Apr-11 05:58N 29°47' W 095°05'0 0.0
2018-Apr-11 05:18N 29°47' W 095°05'0 0.0
2018-Apr-11 04:59N 29°47' W 095°05'0 0.0
2018-Apr-10 22:05N 29°47' W 095°05'0 0.0
2018-Apr-10 21:41N 29°47' W 095°05'0 0.0
2018-Apr-10 21:29N 29°47' W 095°05'0 0.1
2018-Apr-10 21:01N 29°47' W 095°05'0 0.1
2018-Apr-10 20:30N 29°47' W 095°05'0 0.1
2018-Apr-10 20:01N 29°47' W 095°05'0 0.0
2018-Apr-10 19:30N 29°47' W 095°05'0 0.0
2018-Apr-10 19:01N 29°47' W 095°05'0 0.0
2018-Apr-10 18:29N 29°47' W 095°05'0 0.0
2018-Apr-10 18:00N 29°47' W 095°05'0 0.0
2018-Apr-10 17:31N 29°47' W 095°05'0 0.0
2018-Apr-10 16:59N 29°47' W 095°05'0 0.0
2018-Apr-10 16:31N 29°47' W 095°05'0 0.1
2018-Apr-10 15:53N 29°47' W 095°05'1 2.9
2018-Apr-10 15:31N 29°46' W 095°05'2 2.9
2018-Apr-10 14:59N 29°45' W 095°06'1 1.0
2018-Apr-10 13:42N 29°46' W 095°07'0 0.1
2018-Apr-10 13:17N 29°46' W 095°07'0 0.6
2018-Apr-10 13:00N 29°46' W 095°07'2 4.1
2018-Apr-10 12:29N 29°46' W 095°05'1 1.8
2018-Apr-10 11:56N 29°47' W 095°05'0 0.1
2018-Apr-10 11:28N 29°47' W 095°05'0 0.0
2018-Apr-10 10:59N 29°47' W 095°05'0 0.0
2018-Apr-10 10:29N 29°47' W 095°05'0 0.0
2018-Apr-10 06:32N 29°47' W 095°05'0 0.0
2018-Apr-10 00:07N 29°47' W 095°05'0 0.0
2018-Apr-10 00:00N 29°47' W 095°05'0 0.0
2018-Apr-09 23:30N 29°47' W 095°05'0 0.0
2018-Apr-09 23:00N 29°47' W 095°05'0 0.0
2018-Apr-09 22:30N 29°47' W 095°05'0 0.0
2018-Apr-09 22:00N 29°47' W 095°05'0 0.0
2018-Apr-09 21:30N 29°47' W 095°05'0 0.0
2018-Apr-09 21:00N 29°47' W 095°05'0 0.0
2018-Apr-09 20:30N 29°47' W 095°05'0 0.0
2018-Apr-09 20:00N 29°47' W 095°05'0 0.0
2018-Apr-09 19:30N 29°47' W 095°05'0 0.0
2018-Apr-09 19:00N 29°47' W 095°05'0 0.0
2018-Apr-09 18:29N 29°47' W 095°05'0 0.0
2018-Apr-09 18:00N 29°47' W 095°05'0 0.0
2018-Apr-09 17:31N 29°47' W 095°05'0 0.0
2018-Apr-09 17:00N 29°47' W 095°05'0 0.0
2018-Apr-09 15:08N 29°47' W 095°05'0 0.0
2018-Apr-09 13:49N 29°47' W 095°05'0 0.0
2018-Apr-09 00:20N 29°47' W 095°05'0 0.0
2018-Apr-08 23:15N 29°47' W 095°05'0 0.0
2018-Apr-08 22:48N 29°47' W 095°05'0 0.6
2018-Apr-08 22:31N 29°47' W 095°05'0 0.0
2018-Apr-08 20:52N 29°47' W 095°05'2 4.3
2018-Apr-08 20:30N 29°46' W 095°05'1 0.4
2018-Apr-08 16:25N 29°45' W 095°06'2 5.0
2018-Apr-08 16:00N 29°46' W 095°05'1 1.6
2018-Apr-08 15:30N 29°47' W 095°05'0 0.0
2018-Apr-08 15:01N 29°47' W 095°05'0 0.0
2018-Apr-08 14:31N 29°47' W 095°05'0 0.0
2018-Apr-08 14:00N 29°47' W 095°05'0 0.0
2018-Apr-08 13:30N 29°47' W 095°05'0 0.0
2018-Apr-08 12:57N 29°47' W 095°05'0 0.0
2018-Apr-08 12:06N 29°47' W 095°05'0 0.0
2018-Apr-08 10:25N 29°47' W 095°05'0 0.0
2018-Apr-08 09:55N 29°47' W 095°05'  

Dump ship's entire track history